Time;durP1;ratioP1;P1;durP2;ratioP2;P2;SDS_P1;SDS_P2;PMS_P1;PMS_P2;Temp;Humidity;BMP_temperature;BMP_pressure;BME280_temperature;BME280_humidity;BME280_pressure;Samples;Min_cycle;Max_cycle;Signal;HPM_P1;HPM_P2
2022/09/02 00:02:15;;;;;;;9.80;8.87;;;13.70;99.90;;;;;;5010912;28;20438;-67
2022/09/02 00:04:42;;;;;;;9.57;8.27;;;13.60;99.90;;;;;;5011447;28;21026;-67
2022/09/02 00:07:09;;;;;;;9.83;8.93;;;13.60;99.90;;;;;;5011304;28;20458;-66
2022/09/02 00:09:39;;;;;;;8.90;8.10;;;13.60;99.90;;;;;;5011338;28;20462;-66
2022/09/02 00:12:06;;;;;;;8.20;7.60;;;13.60;99.90;;;;;;5010687;28;21251;-67
2022/09/02 00:14:36;;;;;;;8.80;8.03;;;13.60;99.90;;;;;;5010050;28;20843;-66
2022/09/02 00:17:03;;;;;;;8.90;8.03;;;13.60;99.90;;;;;;5010897;28;20453;-67
2022/09/02 00:19:31;;;;;;;10.10;9.20;;;13.50;99.90;;;;;;5011185;28;20456;-66
2022/09/02 00:22:00;;;;;;;10.27;9.37;;;13.50;99.90;;;;;;5010702;28;20451;-67
2022/09/02 00:24:26;;;;;;;9.80;9.00;;;13.50;99.90;;;;;;5010819;28;20480;-66
2022/09/02 00:26:55;;;;;;;9.63;8.50;;;13.60;99.90;;;;;;5010910;28;21022;-66
2022/09/02 00:29:21;;;;;;;9.97;9.17;;;13.60;99.90;;;;;;5010614;28;20940;-67
2022/09/02 00:31:48;;;;;;;9.33;8.47;;;13.50;99.90;;;;;;5010811;28;20488;-66
2022/09/02 00:34:15;;;;;;;10.73;9.83;;;13.50;99.90;;;;;;5010809;28;20470;-67
2022/09/02 00:36:42;;;;;;;9.47;8.67;;;13.40;99.90;;;;;;5011038;28;20458;-67
2022/09/02 00:39:09;;;;;;;9.53;8.60;;;13.40;99.90;;;;;;5010681;28;20488;-67
2022/09/02 00:41:39;;;;;;;10.33;9.40;;;13.30;99.90;;;;;;5010680;28;20442;-66
2022/09/02 00:44:09;;;;;;;10.03;9.23;;;13.30;99.90;;;;;;5010136;28;20465;-66
2022/09/02 00:46:36;;;;;;;9.50;8.77;;;13.30;99.90;;;;;;5010624;28;20449;-67
2022/09/02 00:49:07;;;;;;;9.70;8.90;;;13.30;99.90;;;;;;5010510;28;20446;-67
2022/09/02 00:51:39;;;;;;;9.43;8.67;;;13.30;99.90;;;;;;5010453;28;20504;-66
2022/09/02 00:54:06;;;;;;;10.00;9.20;;;13.30;99.90;;;;;;5009933;28;20482;-67
2022/09/02 00:56:36;;;;;;;10.00;9.10;;;13.30;99.90;;;;;;5010386;28;20456;-67
2022/09/02 00:59:04;;;;;;;10.30;9.40;;;13.30;99.90;;;;;;5010404;28;20442;-67
2022/09/02 01:01:32;;;;;;;10.17;9.37;;;13.20;99.90;;;;;;5010603;28;20533;-66
2022/09/02 01:03:59;;;;;;;10.20;9.37;;;13.20;99.90;;;;;;5009881;28;20473;-66
2022/09/02 01:06:31;;;;;;;10.30;9.40;;;13.10;99.90;;;;;;5010216;28;20827;-66
2022/09/02 01:09:04;;;;;;;10.00;9.10;;;13.10;99.90;;;;;;5010214;28;20453;-67
2022/09/02 01:11:38;;;;;;;9.33;8.50;;;13.10;99.90;;;;;;5010052;28;20516;-66
2022/09/02 01:14:05;;;;;;;10.80;9.90;;;13.00;99.90;;;;;;5010185;28;20473;-66
2022/09/02 01:16:40;;;;;;;10.13;9.10;;;13.00;99.90;;;;;;5010345;28;20480;-66
2022/09/02 01:19:13;;;;;;;10.30;9.40;;;12.90;99.90;;;;;;5010508;28;20532;-66
2022/09/02 01:21:46;;;;;;;10.13;9.23;;;13.00;99.90;;;;;;5010517;28;20442;-66
2022/09/02 01:24:13;;;;;;;9.60;8.60;;;13.00;99.90;;;;;;5009931;28;20470;-66
2022/09/02 01:26:40;;;;;;;9.20;8.40;;;13.00;99.90;;;;;;5010072;28;20454;-66
2022/09/02 01:29:07;;;;;;;10.27;9.37;;;13.00;99.90;;;;;;5010091;28;20823;-66
2022/09/02 01:31:34;;;;;;;10.10;9.10;;;13.00;99.90;;;;;;5009884;28;20484;-66
2022/09/02 01:34:01;;;;;;;9.23;8.50;;;13.00;99.90;;;;;;5009639;28;20477;-66
2022/09/02 01:36:28;;;;;;;11.77;10.20;;;13.00;99.90;;;;;;5010029;28;20500;-66
2022/09/02 01:38:56;;;;;;;9.30;8.40;;;13.00;99.90;;;;;;5010146;28;20450;-67
2022/09/02 01:41:23;;;;;;;9.83;9.10;;;12.90;99.90;;;;;;5009989;28;20820;-66
2022/09/02 01:43:50;;;;;;;8.67;7.97;;;12.90;99.90;;;;;;5009643;28;20469;-66
2022/09/02 01:46:17;;;;;;;9.93;9.03;;;12.80;99.90;;;;;;5009718;28;20540;-66
2022/09/02 01:48:44;;;;;;;10.73;9.73;;;12.80;99.90;;;;;;5009807;28;20947;-66
2022/09/02 01:51:16;;;;;;;10.27;9.47;;;12.80;99.90;;;;;;5009880;28;20453;-66
2022/09/02 01:53:43;;;;;;;9.40;8.60;;;12.90;99.90;;;;;;5009298;28;21009;-67
2022/09/02 01:56:11;;;;;;;8.97;8.23;;;12.80;99.90;;;;;;5009838;28;20445;-67
2022/09/02 01:58:38;;;;;;;9.60;8.80;;;12.70;99.90;;;;;;5009643;28;20446;-66
2022/09/02 02:01:05;;;;;;;10.00;9.07;;;12.70;99.90;;;;;;5009552;28;20442;-67
2022/09/02 02:03:32;;;;;;;11.23;10.13;;;12.70;99.90;;;;;;5009525;28;20463;-66
2022/09/02 02:05:59;;;;;;;10.60;9.70;;;12.60;99.90;;;;;;5009684;28;20508;-66
2022/09/02 02:08:26;;;;;;;9.37;8.53;;;12.60;99.90;;;;;;5009661;28;20476;-67
2022/09/02 02:10:53;;;;;;;9.90;9.00;;;12.50;99.90;;;;;;5009761;28;20456;-66
2022/09/02 02:13:21;;;;;;;10.63;9.73;;;12.40;99.90;;;;;;5009042;28;20591;-66
2022/09/02 02:15:48;;;;;;;10.03;9.13;;;12.40;99.90;;;;;;5009469;28;20446;-66
2022/09/02 02:18:16;;;;;;;9.80;8.83;;;12.40;99.90;;;;;;5009639;28;20540;-67
2022/09/02 02:20:43;;;;;;;9.60;8.80;;;12.40;99.90;;;;;;5009512;28;20993;-66
2022/09/02 02:23:10;;;;;;;10.10;9.20;;;12.30;99.90;;;;;;5009097;28;20466;-66
2022/09/02 02:25:37;;;;;;;11.23;10.33;;;12.30;99.90;;;;;;5009612;28;20454;-66
2022/09/02 02:28:04;;;;;;;9.77;8.97;;;12.30;99.90;;;;;;5009402;28;20446;-66
2022/09/02 02:30:32;;;;;;;9.90;9.10;;;12.30;99.90;;;;;;5009521;28;20457;-67
2022/09/02 02:32:59;;;;;;;10.10;9.13;;;12.30;99.90;;;;;;5008990;28;20489;-66
2022/09/02 02:35:26;;;;;;;9.33;8.63;;;12.30;99.90;;;;;;5009277;28;21002;-66
2022/09/02 02:37:53;;;;;;;10.20;9.40;;;12.30;99.90;;;;;;5011774;28;20450;-66
2022/09/02 02:40:23;;;;;;;10.37;9.47;;;12.20;99.90;;;;;;5012814;28;20445;-66
2022/09/02 02:42:52;;;;;;;10.60;9.67;;;12.10;99.90;;;;;;5012384;28;20462;-67
2022/09/02 02:45:20;;;;;;;10.50;9.40;;;12.10;99.90;;;;;;5012814;28;20453;-67
2022/09/02 02:47:49;;;;;;;10.57;9.67;;;12.00;99.90;;;;;;5012667;28;21128;-67
2022/09/02 02:50:18;;;;;;;10.80;9.63;;;11.90;99.90;;;;;;5012532;28;20975;-67
2022/09/02 02:52:47;;;;;;;9.70;8.90;;;12.00;99.90;;;;;;5012253;28;20477;-67
2022/09/02 02:55:16;;;;;;;11.40;10.27;;;12.00;99.90;;;;;;5012465;28;20461;-67
2022/09/02 02:57:43;;;;;;;10.43;9.53;;;11.90;99.90;;;;;;5012817;28;20450;-66
2022/09/02 03:00:13;;;;;;;11.00;10.00;;;11.90;99.90;;;;;;5012702;28;20441;-67
2022/09/02 03:02:40;;;;;;;10.80;9.80;;;12.00;99.90;;;;;;5012148;28;20466;-66
2022/09/02 03:05:09;;;;;;;10.30;9.30;;;12.00;99.90;;;;;;5012700;28;20955;-66
2022/09/02 03:07:36;;;;;;;10.37;9.43;;;11.90;99.90;;;;;;5012629;28;20450;-66
2022/09/02 03:10:03;;;;;;;10.03;9.20;;;11.90;99.90;;;;;;5012770;28;20971;-66
2022/09/02 03:12:32;;;;;;;11.10;10.10;;;11.80;99.90;;;;;;5012236;28;20486;-66
2022/09/02 03:14:59;;;;;;;10.60;9.77;;;11.90;99.90;;;;;;5012670;28;20452;-66
2022/09/02 03:17:26;;;;;;;11.30;10.30;;;11.90;99.90;;;;;;5012462;28;20548;-67
2022/09/02 03:19:53;;;;;;;10.80;9.80;;;11.80;99.90;;;;;;5012196;28;20457;-66
2022/09/02 03:22:21;;;;;;;10.60;9.67;;;11.80;99.90;;;;;;5011514;28;20890;-66
2022/09/02 03:24:48;;;;;;;11.57;10.40;;;11.80;99.90;;;;;;5012328;28;20460;-67
2022/09/02 03:27:14;;;;;;;11.37;10.40;;;11.80;99.90;;;;;;5012073;28;20461;-67
2022/09/02 03:29:43;;;;;;;11.93;10.93;;;11.80;99.90;;;;;;5012057;28;20449;-65
2022/09/02 03:32:10;;;;;;;11.23;10.33;;;11.80;99.90;;;;;;5011710;28;20454;-67
2022/09/02 03:34:37;;;;;;;11.20;9.70;;;11.70;99.90;;;;;;5011854;28;20470;-67
2022/09/02 03:37:04;;;;;;;12.80;11.40;;;11.70;99.90;;;;;;5012015;28;20458;-65
2022/09/02 03:39:32;;;;;;;11.47;10.37;;;11.70;99.90;;;;;;5011987;28;20445;-67
2022/09/02 03:41:59;;;;;;;10.67;9.67;;;11.60;99.90;;;;;;5011485;28;20457;-67
2022/09/02 03:44:25;;;;;;;9.67;8.87;;;11.60;99.90;;;;;;5011594;28;20473;-67
2022/09/02 03:46:52;;;;;;;11.57;10.47;;;11.50;99.90;;;;;;5011689;28;20448;-67
2022/09/02 03:49:19;;;;;;;10.67;9.67;;;11.50;99.90;;;;;;5011279;28;20445;-66
2022/09/02 03:51:46;;;;;;;11.13;10.00;;;11.50;99.90;;;;;;5011548;28;20450;-67
2022/09/02 03:54:13;;;;;;;10.10;9.20;;;11.40;99.90;;;;;;5011453;28;20496;-66
2022/09/02 03:56:41;;;;;;;10.70;9.80;;;11.40;99.90;;;;;;5011678;28;20473;-67
2022/09/02 03:59:08;;;;;;;10.60;9.70;;;11.50;99.90;;;;;;5011312;28;20450;-66
2022/09/02 04:01:35;;;;;;;10.40;9.40;;;11.50;99.90;;;;;;5011383;28;20467;-66
2022/09/02 04:04:02;;;;;;;11.10;10.20;;;11.50;99.90;;;;;;5010769;28;20504;-67
2022/09/02 04:06:29;;;;;;;11.90;9.53;;;11.40;99.90;;;;;;5011531;28;20822;-67
2022/09/02 04:08:56;;;;;;;10.10;9.10;;;11.40;99.90;;;;;;5011319;28;21036;-67
2022/09/02 04:11:23;;;;;;;9.60;8.37;;;11.30;99.90;;;;;;5011294;28;20473;-66
2022/09/02 04:13:53;;;;;;;9.83;9.03;;;11.30;99.90;;;;;;5010718;28;20466;-67
2022/09/02 04:23:04;;;;;;;10.27;9.27;;;11.30;99.90;;;;;;5010807;28;20494;-66
2022/09/02 04:25:31;;;;;;;11.00;10.10;;;11.20;99.90;;;;;;5011057;28;20532;-67
2022/09/02 04:27:58;;;;;;;10.20;9.30;;;11.20;99.90;;;;;;5010997;28;20450;-67
2022/09/02 04:30:26;;;;;;;11.10;9.97;;;11.20;99.90;;;;;;5010529;28;20457;-66
2022/09/02 04:32:53;;;;;;;10.73;9.73;;;11.20;99.90;;;;;;5010567;28;20473;-68
2022/09/02 04:35:20;;;;;;;10.10;9.30;;;11.20;99.90;;;;;;5010612;28;20453;-66
2022/09/02 04:37:47;;;;;;;10.50;9.60;;;11.30;99.90;;;;;;5010748;28;20450;-66
2022/09/02 04:40:15;;;;;;;11.50;10.40;;;11.20;99.90;;;;;;5011014;28;20839;-66
2022/09/02 04:42:42;;;;;;;11.13;10.20;;;11.10;99.90;;;;;;5010738;28;20485;-67
2022/09/02 04:45:10;;;;;;;13.40;10.17;;;11.10;99.90;;;;;;5011292;28;20453;-66
2022/09/02 04:47:38;;;;;;;13.30;12.00;;;11.00;99.90;;;;;;5010536;28;20810;-66
2022/09/02 04:50:06;;;;;;;12.70;11.60;;;11.00;99.90;;;;;;5010869;28;20819;-66
2022/09/02 04:52:33;;;;;;;13.23;11.93;;;11.00;99.90;;;;;;5010271;28;20826;-66
2022/09/02 04:55:00;;;;;;;12.70;11.50;;;11.10;99.90;;;;;;5010662;28;20460;-67
2022/09/02 04:57:26;;;;;;;12.13;10.93;;;11.10;99.90;;;;;;5010471;28;21192;-67
2022/09/02 04:59:53;;;;;;;12.23;10.90;;;11.10;99.90;;;;;;5010151;28;20452;-66
2022/09/02 05:02:21;;;;;;;12.70;11.37;;;11.10;99.90;;;;;;5009794;28;20458;-65
2022/09/02 05:04:51;;;;;;;11.47;10.07;;;11.10;99.90;;;;;;5010292;28;21026;-66
2022/09/02 05:07:17;;;;;;;11.60;10.50;;;11.20;99.90;;;;;;5010348;28;20480;-66
2022/09/02 05:09:44;;;;;;;10.77;9.80;;;11.20;99.90;;;;;;5010553;28;20446;-67
2022/09/02 05:12:11;;;;;;;11.40;10.20;;;11.20;99.90;;;;;;5009832;28;20486;-65
2022/09/02 05:14:38;;;;;;;11.90;10.80;;;11.30;99.90;;;;;;5010054;28;20854;-66
2022/09/02 05:17:05;;;;;;;12.60;11.40;;;11.30;99.90;;;;;;5010124;28;20450;-66
2022/09/02 05:19:32;;;;;;;11.10;10.03;;;11.30;99.90;;;;;;5010113;28;20819;-66
2022/09/02 05:22:00;;;;;;;10.20;8.77;;;11.30;99.90;;;;;;5009920;28;20457;-67
2022/09/02 05:24:28;;;;;;;10.03;9.23;;;11.30;99.90;;;;;;5009748;28;20576;-66
2022/09/02 05:26:55;;;;;;;12.17;11.07;;;11.40;99.90;;;;;;5010047;28;20482;-66
2022/09/02 05:29:22;;;;;;;10.80;9.80;;;11.40;99.90;;;;;;5009748;28;20460;-66
2022/09/02 05:31:50;;;;;;;9.90;9.00;;;11.40;99.90;;;;;;5009907;28;20964;-66
2022/09/02 05:34:17;;;;;;;11.87;10.77;;;11.40;99.90;;;;;;5009828;28;20548;-66
2022/09/02 05:36:45;;;;;;;11.10;10.00;;;11.30;99.90;;;;;;5010032;28;20452;-66
2022/09/02 05:39:13;;;;;;;10.67;8.87;;;11.30;99.90;;;;;;5009762;28;20454;-66
2022/09/02 05:41:41;;;;;;;14.70;9.67;;;11.40;99.90;;;;;;5009775;28;20445;-64
2022/09/02 05:44:08;;;;;;;9.87;9.07;;;11.50;99.90;;;;;;5009649;28;20485;-68
2022/09/02 05:46:36;;;;;;;9.70;8.90;;;11.60;99.90;;;;;;5010002;28;20472;-66
2022/09/02 05:49:07;;;;;;;10.57;8.70;;;11.60;99.90;;;;;;5009887;28;20445;-66
2022/09/02 05:51:40;;;;;;;9.83;9.03;;;11.60;99.90;;;;;;5009759;28;20446;-65
2022/09/02 05:54:09;;;;;;;10.90;9.80;;;11.70;99.90;;;;;;5009479;28;20509;-65
2022/09/02 05:56:39;;;;;;;10.70;9.80;;;11.80;99.90;;;;;;5009448;28;20843;-65
2022/09/02 05:59:07;;;;;;;10.47;9.50;;;11.80;99.90;;;;;;5009799;28;20462;-65
2022/09/02 06:01:34;;;;;;;9.97;8.93;;;11.90;99.90;;;;;;5009562;28;20445;-65
2022/09/02 06:04:02;;;;;;;9.00;8.23;;;12.00;99.90;;;;;;5009257;28;20504;-68
2022/09/02 06:06:29;;;;;;;9.27;8.20;;;12.20;99.90;;;;;;5009474;28;20483;-66
2022/09/02 06:08:56;;;;;;;8.57;7.80;;;12.20;99.90;;;;;;5009495;28;20566;-68
2022/09/02 06:11:23;;;;;;;8.60;7.90;;;12.40;99.90;;;;;;5009665;28;20445;-65
2022/09/02 06:13:54;;;;;;;8.37;7.57;;;12.60;99.90;;;;;;5013127;28;20457;-65
2022/09/02 06:16:22;;;;;;;8.00;7.20;;;12.70;99.90;;;;;;5013223;28;20951;-65
2022/09/02 06:18:50;;;;;;;10.50;8.00;;;12.80;99.90;;;;;;5013275;28;20487;-64
2022/09/02 06:21:19;;;;;;;8.43;7.63;;;12.90;99.90;;;;;;5013019;28;20943;-65
2022/09/02 06:23:46;;;;;;;7.33;6.70;;;12.90;99.90;;;;;;5012787;28;20491;-65
2022/09/02 06:26:14;;;;;;;7.00;6.40;;;13.10;99.90;;;;;;5013117;28;20452;-65
2022/09/02 06:28:41;;;;;;;7.63;6.90;;;13.20;99.90;;;;;;5013019;28;20437;-68
2022/09/02 06:31:11;;;;;;;7.90;7.10;;;13.30;99.90;;;;;;5013086;28;20441;-65
2022/09/02 06:33:38;;;;;;;6.10;5.50;;;13.40;99.90;;;;;;5012593;28;20472;-65
2022/09/02 06:36:07;;;;;;;9.47;6.37;;;13.60;99.90;;;;;;5012987;28;20809;-65
2022/09/02 06:38:37;;;;;;;5.80;5.40;;;13.80;99.90;;;;;;5013007;28;20857;-65
2022/09/02 06:41:03;;;;;;;6.43;5.93;;;13.80;99.90;;;;;;5012959;28;20455;-66
2022/09/02 06:43:30;;;;;;;6.03;5.53;;;14.00;99.90;;;;;;5012472;28;20485;-65
2022/09/02 06:45:57;;;;;;;6.97;5.17;;;14.10;99.90;;;;;;5012965;28;20453;-66
2022/09/02 06:48:25;;;;;;;9.33;5.57;;;14.20;99.90;;;;;;5012951;28;20454;-65
2022/09/02 06:50:53;;;;;;;8.07;5.77;;;14.20;99.90;;;;;;5012955;28;20948;-65
2022/09/02 06:53:20;;;;;;;5.10;4.70;;;14.30;99.90;;;;;;5012248;28;20531;-65
2022/09/02 06:55:47;;;;;;;7.57;6.83;;;14.40;99.90;;;;;;5012740;28;20457;-65
2022/09/02 06:58:14;;;;;;;6.43;5.93;;;14.60;99.90;;;;;;5012735;28;20448;-65
2022/09/02 07:00:42;;;;;;;5.00;4.60;;;14.70;99.90;;;;;;5012432;28;20959;-67
2022/09/02 07:06:02;;;;;;;7.93;5.13;;;15.00;99.90;;;;;;5012400;28;21025;-66
2022/09/02 07:08:29;;;;;;;5.73;5.23;;;15.10;99.90;;;;;;5012636;28;20445;-66
2022/09/02 07:10:55;;;;;;;7.20;4.50;;;15.30;99.90;;;;;;5012155;28;20448;-66
2022/09/02 07:13:22;;;;;;;5.40;3.97;;;15.40;99.90;;;;;;5011948;28;20469;-66
2022/09/02 07:15:49;;;;;;;4.70;4.30;;;15.60;99.90;;;;;;5012268;28;20450;-67
2022/09/02 07:18:16;;;;;;;4.37;3.97;;;15.70;99.90;;;;;;5012207;28;20450;-66
2022/09/02 07:20:45;;;;;;;7.23;4.80;;;15.90;99.90;;;;;;5011904;28;20488;-66
2022/09/02 07:23:13;;;;;;;4.73;4.33;;;16.00;99.90;;;;;;5011307;28;20489;-67
2022/09/02 07:25:41;;;;;;;4.30;4.00;;;16.20;99.90;;;;;;5011982;28;20464;-66
2022/09/02 07:28:07;;;;;;;6.57;4.50;;;16.30;99.90;;;;;;5011955;28;20512;-67
2022/09/02 07:30:35;;;;;;;3.90;3.60;;;16.50;99.90;;;;;;5011993;28;20449;-65
2022/09/02 07:33:03;;;;;;;4.10;3.53;;;16.60;99.90;;;;;;5011671;28;20474;-66
2022/09/02 07:35:30;;;;;;;4.13;3.83;;;16.80;99.90;;;;;;5012045;28;20446;-65
2022/09/02 07:37:57;;;;;;;3.97;3.67;;;17.00;99.90;;;;;;5011286;28;21008;-65
2022/09/02 07:40:25;;;;;;;3.77;3.47;;;17.10;99.90;;;;;;5011788;28;20472;-66
2022/09/02 07:42:52;;;;;;;4.70;3.07;;;17.30;99.90;;;;;;5020357;28;20472;-65
2022/09/02 07:45:19;;;;;;;3.90;3.50;;;17.40;99.90;;;;;;5031567;28;20480;-65
2022/09/02 07:47:47;;;;;;;4.17;3.60;;;17.50;99.90;;;;;;5031356;28;20495;-66
2022/09/02 07:50:15;;;;;;;3.93;3.30;;;17.70;99.90;;;;;;5031546;28;20862;-66
2022/09/02 07:52:42;;;;;;;4.47;3.77;;;17.80;99.90;;;;;;5030884;28;20480;-66
2022/09/02 07:55:09;;;;;;;3.90;3.50;;;17.90;99.90;;;;;;5031104;28;20453;-64
2022/09/02 07:57:38;;;;;;;4.07;3.73;;;17.90;99.90;;;;;;5031390;28;20452;-66
2022/09/02 08:00:06;;;;;;;6.37;3.33;;;18.10;99.90;;;;;;5026607;28;20464;-69
2022/09/02 08:02:33;;;;;;;3.80;3.50;;;18.20;99.90;;;;;;5025166;28;20449;-66
2022/09/02 08:05:01;;;;;;;3.90;3.53;;;18.30;99.90;;;;;;5022410;28;20228;-65
2022/09/02 08:07:28;;;;;;;4.30;3.00;;;18.40;99.90;;;;;;5019731;28;20459;-66
2022/09/02 08:09:54;;;;;;;4.17;3.30;;;18.50;99.90;;;;;;5021581;28;20449;-63
2022/09/02 08:12:21;;;;;;;4.67;2.87;;;18.70;99.90;;;;;;5021804;28;20978;-67
2022/09/02 08:14:50;;;;;;;3.63;2.90;;;18.80;99.90;;;;;;5018375;28;20880;-68
2022/09/02 08:17:17;;;;;;;3.63;2.93;;;18.90;99.90;;;;;;5022915;28;20452;-67
2022/09/02 08:19:44;;;;;;;4.13;3.73;;;19.00;99.90;;;;;;5026841;28;20450;-67
2022/09/02 08:22:10;;;;;;;3.27;2.83;;;19.20;99.90;;;;;;5029093;28;20441;-66
2022/09/02 08:24:38;;;;;;;2.63;2.40;;;19.20;99.90;;;;;;5028617;28;21141;-64
2022/09/02 08:27:05;;;;;;;6.23;4.13;;;19.30;99.90;;;;;;5028635;28;20444;-66
2022/09/02 08:29:32;;;;;;;3.23;2.30;;;19.40;99.90;;;;;;5030092;28;20993;-66
2022/09/02 08:32:01;;;;;;;5.47;2.77;;;19.50;99.90;;;;;;5030197;28;20468;-66
2022/09/02 08:34:28;;;;;;;3.27;2.97;;;19.60;99.90;;;;;;5029776;28;20467;-66
2022/09/02 08:36:56;;;;;;;4.10;2.40;;;19.70;99.90;;;;;;5030399;28;20440;-66
2022/09/02 08:39:23;;;;;;;2.90;2.57;;;19.80;99.90;;;;;;5030784;28;20451;-66
2022/09/02 08:42:01;;;;;;;2.83;2.20;;;19.90;99.90;;;;;;5030133;28;20974;-66
2022/09/02 08:44:29;;;;;;;2.70;2.50;;;20.00;99.90;;;;;;5029955;28;20491;-71
2022/09/02 08:47:01;;;;;;;8.73;2.90;;;20.10;99.90;;;;;;5023821;28;20453;-70
2022/09/02 08:49:34;;;;;;;4.33;2.47;;;20.30;99.90;;;;;;5026002;28;21029;-68
2022/09/02 08:52:03;;;;;;;2.50;2.30;;;20.40;99.90;;;;;;5026934;28;20459;-67
2022/09/02 08:54:36;;;;;;;3.03;2.23;;;20.50;99.90;;;;;;5025979;28;20473;-71
2022/09/02 08:57:03;;;;;;;4.40;2.20;;;20.60;99.90;;;;;;5025171;28;20889;-67
2022/09/02 08:59:31;;;;;;;2.33;2.13;;;20.70;99.90;;;;;;5026589;28;20449;-67
2022/09/02 09:02:05;;;;;;;3.23;2.40;;;20.90;99.90;;;;;;5017949;28;20794;-67
2022/09/02 09:04:53;;;;;;;3.40;2.33;;;21.00;99.90;;;;;;5025333;28;20497;-67
2022/09/02 09:07:28;;;;;;;2.30;2.10;;;21.10;99.90;;;;;;5020831;28;20445;-67
2022/09/02 09:10:06;;;;;;;2.63;2.27;;;21.20;99.90;;;;;;5027409;28;20794;-67
2022/09/02 09:12:52;;;;;;;2.30;2.10;;;21.30;99.90;;;;;;5029123;28;20437;-66
2022/09/02 09:15:29;;;;;;;1.80;1.70;;;21.40;99.90;;;;;;5026332;28;20433;-67
2022/09/02 09:17:59;;;;;;;2.20;2.00;;;21.60;99.90;;;;;;5029647;28;20444;-67
2022/09/02 09:20:31;;;;;;;4.37;1.97;;;21.80;99.90;;;;;;5029731;28;20942;-67
2022/09/02 09:23:00;;;;;;;2.70;2.20;;;22.20;99.90;;;;;;5029053;28;20457;-67
2022/09/02 09:25:29;;;;;;;3.73;1.70;;;22.70;99.00;;;;;;5027804;28;21006;-68
2022/09/02 09:27:56;;;;;;;3.33;2.27;;;23.30;98.20;;;;;;5029096;28;20448;-67
2022/09/02 09:30:23;;;;;;;2.53;2.23;;;24.00;96.50;;;;;;5027597;28;20458;-68
2022/09/02 09:32:54;;;;;;;3.10;1.80;;;24.40;94.20;;;;;;5028777;28;20895;-67
2022/09/02 09:35:21;;;;;;;2.87;1.90;;;24.80;94.10;;;;;;5026558;28;20437;-67
2022/09/02 09:37:50;;;;;;;2.20;1.60;;;24.90;92.90;;;;;;5027433;28;20544;-67
2022/09/02 09:40:27;;;;;;;2.50;2.20;;;25.20;91.40;;;;;;5019757;28;20548;-68
2022/09/02 09:42:57;;;;;;;3.50;2.00;;;25.30;91.40;;;;;;5023758;28;20460;-67
2022/09/02 09:45:30;;;;;;;4.97;1.63;;;25.30;89.90;;;;;;5023685;28;20476;-68
2022/09/02 09:48:16;;;;;;;3.90;1.60;;;25.50;89.70;;;;;;5030453;28;20843;-68
2022/09/02 09:50:43;;;;;;;2.73;1.43;;;25.80;88.10;;;;;;5029360;28;20459;-68
2022/09/02 09:53:20;;;;;;;2.20;1.70;;;26.10;86.20;;;;;;5029983;28;20998;-68
2022/09/02 09:55:53;;;;;;;5.50;1.60;;;26.10;84.90;;;;;;5029358;28;20452;-69
2022/09/02 09:58:21;;;;;;;4.73;1.60;;;26.30;85.60;;;;;;5027758;28;20448;-68
2022/09/02 10:00:49;;;;;;;1.50;1.40;;;26.50;81.80;;;;;;5032194;28;20527;-66
2022/09/02 10:03:23;;;;;;;3.30;1.60;;;26.50;79.20;;;;;;5022825;28;20986;-68
2022/09/02 10:05:53;;;;;;;1.97;1.67;;;26.30;78.00;;;;;;5026108;28;20484;-67
2022/09/02 10:08:23;;;;;;;2.97;1.70;;;26.40;79.10;;;;;;5028669;28;20453;-68
2022/09/02 10:10:57;;;;;;;3.33;1.57;;;26.50;77.10;;;;;;5031517;28;20862;-68
2022/09/02 10:13:27;;;;;;;1.83;1.43;;;26.40;77.80;;;;;;5028812;28;20465;-67
2022/09/02 10:16:12;;;;;;;4.67;2.20;;;26.40;77.80;;;;;;5026350;28;20453;-68
2022/09/02 10:18:44;;;;;;;4.10;1.60;;;26.40;75.90;;;;;;5024580;28;20452;-66
2022/09/02 10:21:22;;;;;;;4.50;1.70;;;26.50;76.60;;;;;;5022755;28;20453;-68
2022/09/02 10:23:59;;;;;;;5.07;2.10;;;26.60;77.10;;;;;;5021475;28;20556;-66
2022/09/02 10:26:36;;;;;;;1.87;1.50;;;26.80;76.50;;;;;;5020544;28;20456;-67
2022/09/02 10:29:37;;;;;;;3.80;1.60;;;27.10;74.30;;;;;;5023220;28;20510;-67
2022/09/02 10:32:25;;;;;;;2.33;2.00;;;27.30;73.30;;;;;;4994598;28;20457;-68
2022/09/02 10:35:01;;;;;;;1.93;1.20;;;27.60;71.20;;;;;;5024109;28;20567;-67
2022/09/02 10:37:38;;;;;;;2.27;1.57;;;27.70;68.70;;;;;;5024116;28;20459;-69
2022/09/02 10:40:10;;;;;;;4.20;1.60;;;27.90;67.10;;;;;;5020754;28;20556;-68
2022/09/02 10:42:59;;;;;;;1.63;1.30;;;28.10;68.50;;;;;;5023135;28;20464;-67
2022/09/02 10:45:35;;;;;;;1.30;1.20;;;28.40;67.30;;;;;;5021871;28;20499;-67
2022/09/02 10:48:15;;;;;;;2.73;1.50;;;28.50;63.70;;;;;;5025505;28;20453;-67
2022/09/02 10:50:48;;;;;;;8.80;1.70;;;28.50;62.60;;;;;;5021263;28;20533;-67
2022/09/02 10:53:30;;;;;;;1.80;1.50;;;28.20;62.20;;;;;;5023418;28;20476;-68
2022/09/02 10:56:02;;;;;;;3.73;1.50;;;28.20;62.70;;;;;;5024556;28;20445;-67
2022/09/02 10:58:42;;;;;;;2.00;1.63;;;28.10;62.20;;;;;;5020827;28;20462;-67
2022/09/02 11:01:15;;;;;;;2.03;1.37;;;28.40;63.50;;;;;;5024247;28;21049;-67
2022/09/02 11:03:52;;;;;;;2.43;1.17;;;28.50;61.40;;;;;;5024463;28;20935;-67
2022/09/02 11:06:23;;;;;;;1.63;1.30;;;28.60;60.10;;;;;;5025054;28;20864;-68
2022/09/02 11:08:53;;;;;;;2.40;1.27;;;28.80;61.60;;;;;;5026481;28;20463;-68
2022/09/02 11:11:29;;;;;;;2.30;1.30;;;29.20;61.40;;;;;;5023953;28;20502;-69
2022/09/02 11:14:04;;;;;;;1.70;1.40;;;29.20;59.90;;;;;;5026095;28;20486;-68
2022/09/02 11:16:36;;;;;;;1.60;1.20;;;29.40;58.00;;;;;;5023632;28;20450;-67
2022/09/02 11:19:10;;;;;;;1.60;1.20;;;29.30;58.30;;;;;;5026507;28;20449;-67
2022/09/02 11:21:52;;;;;;;1.80;1.47;;;29.50;58.80;;;;;;5022792;28;21001;-67
2022/09/02 11:24:25;;;;;;;1.40;1.30;;;30.00;57.80;;;;;;5023834;28;20465;-68
2022/09/02 11:27:00;;;;;;;1.60;1.30;;;30.10;57.50;;;;;;5025866;28;20457;-68
2022/09/02 11:29:34;;;;;;;1.63;1.33;;;30.20;55.90;;;;;;5025187;28;20452;-66
2022/09/02 11:32:08;;;;;;;1.60;1.30;;;30.60;56.60;;;;;;5026560;28;20448;-68
2022/09/02 11:34:40;;;;;;;2.30;1.50;;;31.00;55.10;;;;;;5028845;28;20480;-68
2022/09/02 11:37:09;;;;;;;2.27;1.00;;;31.30;54.10;;;;;;5023580;28;20456;-68
2022/09/02 11:39:42;;;;;;;1.30;1.10;;;31.50;53.20;;;;;;5027110;28;20453;-69
2022/09/02 11:42:22;;;;;;;4.07;1.43;;;31.80;52.90;;;;;;5026869;28;20819;-68
2022/09/02 11:45:31;;;;;;;2.70;1.37;;;31.80;52.20;;;;;;5027479;28;21001;-67
2022/09/02 11:48:32;;;;;;;3.20;1.37;;;31.60;53.40;;;;;;4979421;28;20547;-72
2022/09/02 11:51:10;;;;;;;1.60;1.30;;;31.50;51.50;;;;;;5025204;28;20472;-68
2022/09/02 11:53:40;;;;;;;1.60;1.10;;;31.70;51.70;;;;;;5029337;28;20479;-68
2022/09/02 11:56:12;;;;;;;1.70;1.30;;;31.10;50.90;;;;;;5030427;28;20526;-68
2022/09/02 11:58:42;;;;;;;2.43;1.60;;;31.20;53.30;;;;;;5028868;28;20455;-67
2022/09/02 12:01:30;;;;;;;3.00;1.47;;;31.20;52.60;;;;;;5027902;28;20457;-68
2022/09/02 12:04:01;;;;;;;2.50;1.43;;;31.30;52.20;;;;;;5027659;28;20827;-68
2022/09/02 12:06:28;;;;;;;3.10;1.47;;;31.20;50.80;;;;;;5030233;28;20535;-68
2022/09/02 12:09:10;;;;;;;1.57;1.43;;;31.00;50.50;;;;;;5030843;28;20445;-68
2022/09/02 12:11:40;;;;;;;1.27;1.07;;;31.40;49.60;;;;;;5030171;28;20987;-68
2022/09/02 12:14:12;;;;;;;3.80;1.20;;;32.10;51.50;;;;;;5030705;28;20912;-68
2022/09/02 12:16:44;;;;;;;3.10;1.27;;;32.40;50.70;;;;;;5031026;28;20511;-68
2022/09/02 12:19:26;;;;;;;2.87;1.30;;;33.10;50.20;;;;;;5030922;28;20743;-68
2022/09/02 12:22:32;;;;;;;1.20;1.00;;;33.30;47.90;;;;;;5030520;28;20487;-68
2022/09/02 12:25:00;;;;;;;1.90;1.40;;;33.80;48.70;;;;;;5030884;28;20481;-68
2022/09/02 12:27:29;;;;;;;3.07;1.53;;;34.40;47.60;;;;;;5030939;28;20456;-68
2022/09/02 12:29:58;;;;;;;2.10;1.33;;;34.50;45.60;;;;;;5030760;28;20475;-68
2022/09/02 12:33:03;;;;;;;1.63;1.33;;;34.80;46.30;;;;;;5030444;28;20455;-67
2022/09/02 12:35:34;;;;;;;1.70;1.23;;;35.10;44.70;;;;;;5030867;28;20884;-67
2022/09/02 12:38:26;;;;;;;2.43;1.43;;;35.00;45.40;;;;;;5031010;28;20935;-68
2022/09/02 12:41:11;;;;;;;2.40;1.37;;;34.90;44.30;;;;;;5030516;28;20460;-67
2022/09/02 12:43:48;;;;;;;2.30;1.20;;;35.00;45.20;;;;;;5030299;28;20849;-68
2022/09/02 12:46:22;;;;;;;2.40;1.33;;;35.80;44.90;;;;;;5030476;28;20488;-68
2022/09/02 12:48:59;;;;;;;2.27;1.30;;;36.00;43.10;;;;;;5032298;28;20472;-68
2022/09/02 12:51:53;;;;;;;2.50;1.20;;;36.40;44.40;;;;;;5030463;28;20812;-68
2022/09/02 12:54:25;;;;;;;1.80;1.30;;;36.20;42.10;;;;;;5030173;28;20480;-68
2022/09/02 12:56:52;;;;;;;6.70;1.77;;;36.50;41.30;;;;;;5030303;28;20444;-68
2022/09/02 12:59:29;;;;;;;6.20;1.53;;;37.20;43.00;;;;;;5030053;28;20444;-68
2022/09/02 13:02:11;;;;;;;1.60;1.30;;;37.30;41.00;;;;;;5030084;28;20859;-68
2022/09/02 13:04:45;;;;;;;2.10;1.00;;;37.40;40.60;;;;;;5029938;28;20475;-67
2022/09/02 13:07:55;;;;;;;2.10;1.40;;;37.50;41.00;;;;;;5030112;28;20452;-68
2022/09/02 13:10:54;;;;;;;1.60;1.20;;;37.50;39.20;;;;;;5030051;28;20457;-67